sensor_id;sensor_type;location;lat;lon;timestamp;pressure;altitude;pressure_sealevel;temperature;humidity
77013;BME280;67260;53.130;17.982;2023-08-31T00:02:06;100247.50;;;14.80;86.16
77013;BME280;67260;53.130;17.982;2023-08-31T00:04:41;100248.51;;;14.79;86.06
77013;BME280;67260;53.130;17.982;2023-08-31T00:07:10;100247.28;;;14.79;86.24
77013;BME280;67260;53.130;17.982;2023-08-31T00:09:38;100250.35;;;14.81;86.15
77013;BME280;67260;53.130;17.982;2023-08-31T00:12:09;100249.45;;;14.81;85.71
77013;BME280;67260;53.130;17.982;2023-08-31T00:14:36;100253.57;;;14.74;85.56
77013;BME280;67260;53.130;17.982;2023-08-31T00:17:04;100252.84;;;14.64;85.92
77013;BME280;67260;53.130;17.982;2023-08-31T00:19:38;100250.05;;;14.61;86.12
77013;BME280;67260;53.130;17.982;2023-08-31T00:22:10;100252.24;;;14.61;86.24
77013;BME280;67260;53.130;17.982;2023-08-31T00:24:38;100253.48;;;14.62;86.38
77013;BME280;67260;53.130;17.982;2023-08-31T00:27:09;100254.09;;;14.62;86.36
77013;BME280;67260;53.130;17.982;2023-08-31T00:29:47;100259.65;;;14.63;86.29
77013;BME280;67260;53.130;17.982;2023-08-31T00:32:20;100264.86;;;14.57;86.35
77013;BME280;67260;53.130;17.982;2023-08-31T00:34:53;100263.73;;;14.58;86.78
77013;BME280;67260;53.130;17.982;2023-08-31T00:37:19;100265.00;;;14.60;86.75
77013;BME280;67260;53.130;17.982;2023-08-31T00:39:48;100267.84;;;14.60;86.72
77013;BME280;67260;53.130;17.982;2023-08-31T00:42:19;100273.17;;;14.54;86.44
77013;BME280;67260;53.130;17.982;2023-08-31T00:44:47;100271.23;;;14.49;86.88
77013;BME280;67260;53.130;17.982;2023-08-31T00:47:15;100268.86;;;14.45;86.83
77013;BME280;67260;53.130;17.982;2023-08-31T00:49:42;100265.38;;;14.42;86.88
77013;BME280;67260;53.130;17.982;2023-08-31T00:52:09;100263.58;;;14.37;86.83
77013;BME280;67260;53.130;17.982;2023-08-31T00:54:36;100262.45;;;14.37;87.16
77013;BME280;67260;53.130;17.982;2023-08-31T00:57:03;100264.11;;;14.37;87.32
77013;BME280;67260;53.130;17.982;2023-08-31T00:59:30;100265.52;;;14.38;87.12
77013;BME280;67260;53.130;17.982;2023-08-31T01:02:17;100269.15;;;14.35;87.02
77013;BME280;67260;53.130;17.982;2023-08-31T01:04:57;100268.62;;;14.35;87.35
77013;BME280;67260;53.130;17.982;2023-08-31T01:10:34;100261.87;;;14.37;87.36
77013;BME280;67260;53.130;17.982;2023-08-31T01:13:15;100257.18;;;14.43;87.41
77013;BME280;67260;53.130;17.982;2023-08-31T01:15:46;100252.21;;;14.46;87.13
77013;BME280;67260;53.130;17.982;2023-08-31T01:18:19;100247.38;;;14.48;87.12
77013;BME280;67260;53.130;17.982;2023-08-31T01:21:27;100250.55;;;14.46;86.73
77013;BME280;67260;53.130;17.982;2023-08-31T01:23:57;100256.02;;;14.44;86.98
77013;BME280;67260;53.130;17.982;2023-08-31T01:26:25;100253.96;;;14.46;86.97
77013;BME280;67260;53.130;17.982;2023-08-31T01:28:52;100251.00;;;14.44;86.82
77013;BME280;67260;53.130;17.982;2023-08-31T01:31:20;100251.36;;;14.42;86.81
77013;BME280;67260;53.130;17.982;2023-08-31T01:33:48;100252.61;;;14.40;86.77
77013;BME280;67260;53.130;17.982;2023-08-31T01:36:35;100252.65;;;14.39;86.69
77013;BME280;67260;53.130;17.982;2023-08-31T01:39:23;100248.06;;;14.36;86.99
77013;BME280;67260;53.130;17.982;2023-08-31T01:41:57;100242.64;;;14.34;86.80
77013;BME280;67260;53.130;17.982;2023-08-31T01:44:26;100247.73;;;14.35;87.04
77013;BME280;67260;53.130;17.982;2023-08-31T01:47:03;100246.48;;;14.40;87.17
77013;BME280;67260;53.130;17.982;2023-08-31T01:49:38;100245.36;;;14.46;86.95
77013;BME280;67260;53.130;17.982;2023-08-31T01:52:11;100245.77;;;14.49;86.82
77013;BME280;67260;53.130;17.982;2023-08-31T01:54:38;100247.59;;;14.52;86.75
77013;BME280;67260;53.130;17.982;2023-08-31T01:57:06;100240.26;;;14.54;86.72
77013;BME280;67260;53.130;17.982;2023-08-31T01:59:34;100239.54;;;14.59;86.70
77013;BME280;67260;53.130;17.982;2023-08-31T02:02:01;100237.28;;;14.61;86.67
77013;BME280;67260;53.130;17.982;2023-08-31T02:04:28;100240.36;;;14.63;86.58
77013;BME280;67260;53.130;17.982;2023-08-31T02:06:57;100238.87;;;14.64;86.67
77013;BME280;67260;53.130;17.982;2023-08-31T02:09:24;100244.96;;;14.60;86.31
77013;BME280;67260;53.130;17.982;2023-08-31T02:11:50;100246.04;;;14.52;86.32
77013;BME280;67260;53.130;17.982;2023-08-31T02:14:17;100244.26;;;14.47;86.42
77013;BME280;67260;53.130;17.982;2023-08-31T02:16:44;100250.45;;;14.46;86.64
77013;BME280;67260;53.130;17.982;2023-08-31T02:19:10;100250.73;;;14.47;86.64
77013;BME280;67260;53.130;17.982;2023-08-31T02:21:37;100252.59;;;14.46;86.28
77013;BME280;67260;53.130;17.982;2023-08-31T02:24:05;100255.02;;;14.36;86.15
77013;BME280;67260;53.130;17.982;2023-08-31T02:26:35;100253.47;;;14.27;86.24
77013;BME280;67260;53.130;17.982;2023-08-31T02:29:03;100253.03;;;14.20;86.47
77013;BME280;67260;53.130;17.982;2023-08-31T02:31:29;100251.67;;;14.13;86.26
77013;BME280;67260;53.130;17.982;2023-08-31T02:33:56;100254.24;;;14.06;86.53
77013;BME280;67260;53.130;17.982;2023-08-31T02:36:23;100257.80;;;14.00;86.54
77013;BME280;67260;53.130;17.982;2023-08-31T02:38:50;100254.54;;;13.90;86.38
77013;BME280;67260;53.130;17.982;2023-08-31T02:41:17;100250.09;;;13.78;86.72
77013;BME280;67260;53.130;17.982;2023-08-31T02:43:43;100254.59;;;13.72;87.07
77013;BME280;67260;53.130;17.982;2023-08-31T02:46:10;100255.67;;;13.70;87.11
77013;BME280;67260;53.130;17.982;2023-08-31T02:48:38;100252.56;;;13.70;87.19
77013;BME280;67260;53.130;17.982;2023-08-31T02:51:05;100251.91;;;13.69;87.47
77013;BME280;67260;53.130;17.982;2023-08-31T02:53:31;100252.24;;;13.72;87.35
77013;BME280;67260;53.130;17.982;2023-08-31T02:55:58;100252.77;;;13.73;87.33
77013;BME280;67260;53.130;17.982;2023-08-31T02:58:25;100257.20;;;13.72;87.33
77013;BME280;67260;53.130;17.982;2023-08-31T03:00:52;100259.23;;;13.74;87.53
77013;BME280;67260;53.130;17.982;2023-08-31T03:03:20;100262.19;;;13.76;87.47
77013;BME280;67260;53.130;17.982;2023-08-31T03:05:47;100266.08;;;13.79;87.57
77013;BME280;67260;53.130;17.982;2023-08-31T03:08:14;100263.79;;;13.82;87.58
77013;BME280;67260;53.130;17.982;2023-08-31T03:10:40;100262.15;;;13.86;87.49
77013;BME280;67260;53.130;17.982;2023-08-31T03:13:07;100255.40;;;13.90;87.48
77013;BME280;67260;53.130;17.982;2023-08-31T03:15:34;100256.05;;;13.94;87.39
77013;BME280;67260;53.130;17.982;2023-08-31T03:18:01;100261.46;;;13.98;87.48
77013;BME280;67260;53.130;17.982;2023-08-31T03:20:28;100259.92;;;14.01;87.33
77013;BME280;67260;53.130;17.982;2023-08-31T03:22:54;100265.25;;;13.98;86.81
77013;BME280;67260;53.130;17.982;2023-08-31T03:25:21;100265.31;;;13.95;87.01
77013;BME280;67260;53.130;17.982;2023-08-31T03:27:48;100264.77;;;13.97;87.28
77013;BME280;67260;53.130;17.982;2023-08-31T03:30:15;100269.48;;;13.99;87.14
77013;BME280;67260;53.130;17.982;2023-08-31T03:32:41;100267.05;;;14.00;87.04
77013;BME280;67260;53.130;17.982;2023-08-31T03:35:09;100271.68;;;14.02;87.19
77013;BME280;67260;53.130;17.982;2023-08-31T03:37:36;100274.23;;;14.01;87.03
77013;BME280;67260;53.130;17.982;2023-08-31T03:40:03;100272.88;;;14.00;87.05
77013;BME280;67260;53.130;17.982;2023-08-31T03:42:35;100275.48;;;13.94;86.84
77013;BME280;67260;53.130;17.982;2023-08-31T03:45:02;100274.35;;;13.93;87.28
77013;BME280;67260;53.130;17.982;2023-08-31T03:47:30;100271.91;;;13.94;87.25
77013;BME280;67260;53.130;17.982;2023-08-31T03:49:57;100272.27;;;13.96;87.23
77013;BME280;67260;53.130;17.982;2023-08-31T03:52:23;100271.45;;;13.98;87.20
77013;BME280;67260;53.130;17.982;2023-08-31T03:54:51;100274.17;;;13.98;87.09
77013;BME280;67260;53.130;17.982;2023-08-31T03:57:19;100273.45;;;13.96;87.08
77013;BME280;67260;53.130;17.982;2023-08-31T03:59:47;100272.30;;;13.95;86.98
77013;BME280;67260;53.130;17.982;2023-08-31T04:02:14;100271.98;;;13.92;87.12
77013;BME280;67260;53.130;17.982;2023-08-31T04:04:41;100271.86;;;13.94;87.20
77013;BME280;67260;53.130;17.982;2023-08-31T04:07:07;100270.90;;;13.97;87.41
77013;BME280;67260;53.130;17.982;2023-08-31T04:09:36;100273.96;;;14.01;87.19
77013;BME280;67260;53.130;17.982;2023-08-31T04:12:03;100272.87;;;14.05;87.15
77013;BME280;67260;53.130;17.982;2023-08-31T04:14:31;100269.70;;;14.10;87.14
77013;BME280;67260;53.130;17.982;2023-08-31T04:16:58;100271.52;;;14.14;86.94
77013;BME280;67260;53.130;17.982;2023-08-31T04:19:25;100272.13;;;14.18;86.98
77013;BME280;67260;53.130;17.982;2023-08-31T04:21:52;100267.14;;;14.23;86.83
77013;BME280;67260;53.130;17.982;2023-08-31T04:24:18;100267.95;;;14.23;86.64
77013;BME280;67260;53.130;17.982;2023-08-31T04:26:45;100271.11;;;14.24;86.77
77013;BME280;67260;53.130;17.982;2023-08-31T04:29:14;100271.48;;;14.24;86.53
77013;BME280;67260;53.130;17.982;2023-08-31T04:31:41;100274.33;;;14.19;86.13
77013;BME280;67260;53.130;17.982;2023-08-31T04:34:08;100277.80;;;14.06;86.04
77013;BME280;67260;53.130;17.982;2023-08-31T04:36:35;100276.84;;;13.97;86.48
77013;BME280;67260;53.130;17.982;2023-08-31T04:39:02;100280.24;;;13.94;86.78
77013;BME280;67260;53.130;17.982;2023-08-31T04:41:29;100279.66;;;13.94;86.87
77013;BME280;67260;53.130;17.982;2023-08-31T04:43:56;100275.52;;;13.95;86.84
77013;BME280;67260;53.130;17.982;2023-08-31T04:46:23;100273.86;;;13.95;86.92
77013;BME280;67260;53.130;17.982;2023-08-31T04:48:51;100275.21;;;13.99;86.87
77013;BME280;67260;53.130;17.982;2023-08-31T04:51:47;100276.70;;;13.98;86.68
77013;BME280;67260;53.130;17.982;2023-08-31T04:54:14;100272.53;;;13.99;86.73
77013;BME280;67260;53.130;17.982;2023-08-31T04:56:41;100270.81;;;14.01;86.95
77013;BME280;67260;53.130;17.982;2023-08-31T04:59:08;100281.27;;;14.06;86.85
77013;BME280;67260;53.130;17.982;2023-08-31T05:01:34;100288.10;;;14.12;86.82
77013;BME280;67260;53.130;17.982;2023-08-31T05:04:03;100289.23;;;14.22;86.78
77013;BME280;67260;53.130;17.982;2023-08-31T05:06:30;100291.05;;;14.30;86.48
77013;BME280;67260;53.130;17.982;2023-08-31T05:08:56;100291.27;;;14.38;86.50
77013;BME280;67260;53.130;17.982;2023-08-31T05:11:23;100295.48;;;14.44;86.18
77013;BME280;67260;53.130;17.982;2023-08-31T05:13:50;100296.68;;;14.46;85.98
77013;BME280;67260;53.130;17.982;2023-08-31T05:16:16;100297.64;;;14.49;86.23
77013;BME280;67260;53.130;17.982;2023-08-31T05:18:43;100297.58;;;14.56;86.11
77013;BME280;67260;53.130;17.982;2023-08-31T05:21:10;100294.62;;;14.63;86.09
77013;BME280;67260;53.130;17.982;2023-08-31T05:23:36;100294.59;;;14.71;85.91
77013;BME280;67260;53.130;17.982;2023-08-31T05:26:03;100293.05;;;14.80;85.96
77013;BME280;67260;53.130;17.982;2023-08-31T05:28:30;100288.59;;;14.92;85.71
77013;BME280;67260;53.130;17.982;2023-08-31T05:30:57;100285.42;;;15.06;85.56
77013;BME280;67260;53.130;17.982;2023-08-31T05:33:24;100286.10;;;15.16;85.16
77013;BME280;67260;53.130;17.982;2023-08-31T05:35:54;100284.56;;;15.25;84.71
77013;BME280;67260;53.130;17.982;2023-08-31T05:38:21;100281.23;;;15.33;84.51
77013;BME280;67260;53.130;17.982;2023-08-31T05:40:47;100286.00;;;15.37;84.30
77013;BME280;67260;53.130;17.982;2023-08-31T05:43:15;100289.00;;;15.42;84.23
77013;BME280;67260;53.130;17.982;2023-08-31T05:45:42;100289.14;;;15.44;84.10
77013;BME280;67260;53.130;17.982;2023-08-31T05:48:09;100294.48;;;15.44;83.87
77013;BME280;67260;53.130;17.982;2023-08-31T05:50:35;100295.20;;;15.46;83.92
77013;BME280;67260;53.130;17.982;2023-08-31T05:53:03;100299.84;;;15.49;83.94
77013;BME280;67260;53.130;17.982;2023-08-31T05:55:31;100304.88;;;15.56;83.97
77013;BME280;67260;53.130;17.982;2023-08-31T05:57:59;100299.47;;;15.66;83.89
77013;BME280;67260;53.130;17.982;2023-08-31T06:00:27;100303.97;;;15.80;83.46
77013;BME280;67260;53.130;17.982;2023-08-31T06:02:53;100307.20;;;15.96;83.41
77013;BME280;67260;53.130;17.982;2023-08-31T06:05:20;100309.38;;;16.17;83.15
77013;BME280;67260;53.130;17.982;2023-08-31T06:07:47;100310.86;;;16.30;82.46
77013;BME280;67260;53.130;17.982;2023-08-31T06:10:13;100312.22;;;16.27;81.78
77013;BME280;67260;53.130;17.982;2023-08-31T06:12:41;100308.13;;;16.20;81.96
77013;BME280;67260;53.130;17.982;2023-08-31T06:15:08;100309.20;;;16.14;82.22
77013;BME280;67260;53.130;17.982;2023-08-31T06:17:35;100309.20;;;16.15;82.23
77013;BME280;67260;53.130;17.982;2023-08-31T06:20:02;100308.40;;;16.20;82.32
77013;BME280;67260;53.130;17.982;2023-08-31T06:22:31;100304.55;;;16.81;81.59
77013;BME280;67260;53.130;17.982;2023-08-31T06:24:58;100305.95;;;19.51;75.87
77013;BME280;67260;53.130;17.982;2023-08-31T06:27:25;100309.44;;;21.01;72.21
77013;BME280;67260;53.130;17.982;2023-08-31T06:29:52;100302.73;;;22.17;71.07
77013;BME280;67260;53.130;17.982;2023-08-31T06:32:19;100302.00;;;23.57;68.52
77013;BME280;67260;53.130;17.982;2023-08-31T06:34:46;100305.80;;;24.86;63.67
77013;BME280;67260;53.130;17.982;2023-08-31T06:37:13;100302.40;;;25.90;63.37
77013;BME280;67260;53.130;17.982;2023-08-31T06:39:40;100287.67;;;26.81;62.80
77013;BME280;67260;53.130;17.982;2023-08-31T06:42:07;100291.05;;;26.29;61.22
77013;BME280;67260;53.130;17.982;2023-08-31T06:44:37;100286.72;;;26.20;62.31
77013;BME280;67260;53.130;17.982;2023-08-31T06:47:04;100289.98;;;26.58;59.90
77013;BME280;67260;53.130;17.982;2023-08-31T06:49:33;100289.98;;;28.03;56.88
77013;BME280;67260;53.130;17.982;2023-08-31T06:52:04;100292.09;;;29.71;53.82
77013;BME280;67260;53.130;17.982;2023-08-31T06:54:35;100279.98;;;30.63;52.01
77013;BME280;67260;53.130;17.982;2023-08-31T06:57:04;100283.23;;;31.79;49.23
77013;BME280;67260;53.130;17.982;2023-08-31T06:59:31;100282.41;;;32.10;44.36
77013;BME280;67260;53.130;17.982;2023-08-31T07:01:58;100281.89;;;31.88;46.57
77013;BME280;67260;53.130;17.982;2023-08-31T07:04:26;100285.53;;;32.25;46.01
77013;BME280;67260;53.130;17.982;2023-08-31T07:06:53;100286.67;;;33.21;43.78
77013;BME280;67260;53.130;17.982;2023-08-31T07:09:23;100286.66;;;33.83;39.78
77013;BME280;67260;53.130;17.982;2023-08-31T07:11:50;100286.61;;;34.19;37.85
77013;BME280;67260;53.130;17.982;2023-08-31T07:14:17;100289.30;;;34.34;38.92
77013;BME280;67260;53.130;17.982;2023-08-31T07:16:43;100285.27;;;35.20;38.90
77013;BME280;67260;53.130;17.982;2023-08-31T07:19:10;100284.72;;;35.96;35.19
77013;BME280;67260;53.130;17.982;2023-08-31T07:21:40;100284.83;;;36.09;33.47
77013;BME280;67260;53.130;17.982;2023-08-31T07:24:07;100283.41;;;36.07;33.57
77013;BME280;67260;53.130;17.982;2023-08-31T07:26:34;100277.84;;;36.65;34.00
77013;BME280;67260;53.130;17.982;2023-08-31T07:29:01;100270.98;;;37.25;31.19
77013;BME280;67260;53.130;17.982;2023-08-31T07:31:31;100272.86;;;37.38;29.95
77013;BME280;67260;53.130;17.982;2023-08-31T07:34:01;100274.46;;;37.13;30.02
77013;BME280;67260;53.130;17.982;2023-08-31T07:36:30;100278.79;;;37.40;28.81
77013;BME280;67260;53.130;17.982;2023-08-31T07:39:00;100286.16;;;37.61;28.47
77013;BME280;67260;53.130;17.982;2023-08-31T07:41:27;100288.14;;;37.65;27.72
77013;BME280;67260;53.130;17.982;2023-08-31T07:43:54;100293.36;;;37.69;27.29
77013;BME280;67260;53.130;17.982;2023-08-31T07:46:22;100291.13;;;37.46;26.83
77013;BME280;67260;53.130;17.982;2023-08-31T07:48:49;100290.07;;;37.53;27.63
77013;BME280;67260;53.130;17.982;2023-08-31T07:51:19;100283.42;;;37.52;25.66
77013;BME280;67260;53.130;17.982;2023-08-31T07:53:49;100285.15;;;37.21;26.10
77013;BME280;67260;53.130;17.982;2023-08-31T07:56:16;100281.77;;;37.48;26.72
77013;BME280;67260;53.130;17.982;2023-08-31T07:58:48;100290.59;;;37.67;26.17
77013;BME280;67260;53.130;17.982;2023-08-31T08:01:15;100289.58;;;38.08;25.29
77013;BME280;67260;53.130;17.982;2023-08-31T08:03:41;100298.70;;;37.51;24.31
77013;BME280;67260;53.130;17.982;2023-08-31T08:06:08;100301.54;;;36.95;26.13
77013;BME280;67260;53.130;17.982;2023-08-31T08:08:35;100300.91;;;37.54;25.30
77013;BME280;67260;53.130;17.982;2023-08-31T08:11:04;100302.14;;;37.70;24.67
77013;BME280;67260;53.130;17.982;2023-08-31T08:13:31;100307.59;;;36.63;25.46
77013;BME280;67260;53.130;17.982;2023-08-31T08:15:58;100303.08;;;36.04;26.35
77013;BME280;67260;53.130;17.982;2023-08-31T08:18:24;100303.80;;;35.78;27.01
77013;BME280;67260;53.130;17.982;2023-08-31T08:20:53;100301.33;;;36.06;26.47
77013;BME280;67260;53.130;17.982;2023-08-31T08:23:20;100296.96;;;36.55;24.43
77013;BME280;67260;53.130;17.982;2023-08-31T08:25:49;100297.43;;;36.42;25.37
77013;BME280;67260;53.130;17.982;2023-08-31T08:28:16;100305.05;;;35.28;25.89
77013;BME280;67260;53.130;17.982;2023-08-31T08:30:43;100312.48;;;32.61;28.42
77013;BME280;67260;53.130;17.982;2023-08-31T08:33:10;100311.34;;;30.76;31.04
77013;BME280;67260;53.130;17.982;2023-08-31T08:35:39;100318.54;;;29.84;33.02
77013;BME280;67260;53.130;17.982;2023-08-31T08:38:06;100319.90;;;29.50;33.32
77013;BME280;67260;53.130;17.982;2023-08-31T08:40:37;100317.27;;;30.39;32.74
77013;BME280;67260;53.130;17.982;2023-08-31T08:43:11;100324.98;;;30.06;32.93
77013;BME280;67260;53.130;17.982;2023-08-31T08:49:40;100312.55;;;31.80;31.88
77013;BME280;67260;53.130;17.982;2023-08-31T08:52:51;100315.62;;;31.47;31.83
77013;BME280;67260;53.130;17.982;2023-08-31T08:55:47;100316.27;;;31.08;33.35
77013;BME280;67260;53.130;17.982;2023-08-31T08:58:53;100325.10;;;30.31;34.14
77013;BME280;67260;53.130;17.982;2023-08-31T09:05:07;100323.54;;;29.75;35.39
77013;BME280;67260;53.130;17.982;2023-08-31T09:14:19;100330.15;;;25.96;41.38
77013;BME280;67260;53.130;17.982;2023-08-31T09:16:51;100331.16;;;25.07;43.17
77013;BME280;67260;53.130;17.982;2023-08-31T09:19:22;100337.40;;;24.31;45.17
77013;BME280;67260;53.130;17.982;2023-08-31T09:21:51;100341.52;;;23.52;47.15
77013;BME280;67260;53.130;17.982;2023-08-31T09:24:19;100339.71;;;23.04;47.99
77013;BME280;67260;53.130;17.982;2023-08-31T09:26:49;100348.58;;;23.37;47.74
77013;BME280;67260;53.130;17.982;2023-08-31T09:29:22;100342.80;;;23.77;48.02
77013;BME280;67260;53.130;17.982;2023-08-31T09:31:50;100345.56;;;24.21;47.60
77013;BME280;67260;53.130;17.982;2023-08-31T09:34:18;100346.72;;;25.50;45.18
77013;BME280;67260;53.130;17.982;2023-08-31T09:36:49;100344.31;;;27.28;42.61
77013;BME280;67260;53.130;17.982;2023-08-31T09:39:16;100347.50;;;28.66;39.60
77013;BME280;67260;53.130;17.982;2023-08-31T09:41:56;100349.69;;;29.71;36.69
77013;BME280;67260;53.130;17.982;2023-08-31T09:44:23;100351.02;;;30.28;35.74
77013;BME280;67260;53.130;17.982;2023-08-31T09:46:51;100352.67;;;30.71;35.39
77013;BME280;67260;53.130;17.982;2023-08-31T09:49:20;100357.06;;;31.03;34.34
77013;BME280;67260;53.130;17.982;2023-08-31T09:51:49;100357.38;;;31.14;34.13
77013;BME280;67260;53.130;17.982;2023-08-31T09:54:23;100359.20;;;31.35;33.27
77013;BME280;67260;53.130;17.982;2023-08-31T09:56:55;100361.70;;;30.69;33.54
77013;BME280;67260;53.130;17.982;2023-08-31T09:59:27;100362.13;;;29.89;34.87
77013;BME280;67260;53.130;17.982;2023-08-31T10:01:55;100366.45;;;28.81;36.24
77013;BME280;67260;53.130;17.982;2023-08-31T10:04:29;100367.36;;;27.62;37.32
77013;BME280;67260;53.130;17.982;2023-08-31T10:07:03;100367.80;;;27.38;38.17
77013;BME280;67260;53.130;17.982;2023-08-31T10:09:30;100363.29;;;28.62;37.04
77013;BME280;67260;53.130;17.982;2023-08-31T10:11:58;100363.42;;;29.46;36.55
77013;BME280;67260;53.130;17.982;2023-08-31T10:14:25;100365.14;;;30.00;35.82
77013;BME280;67260;53.130;17.982;2023-08-31T10:16:53;100358.86;;;29.67;35.45
77013;BME280;67260;53.130;17.982;2023-08-31T10:19:22;100364.20;;;28.53;36.56
77013;BME280;67260;53.130;17.982;2023-08-31T10:21:49;100362.22;;;27.22;38.62
77013;BME280;67260;53.130;17.982;2023-08-31T10:24:18;100366.66;;;26.04;40.72
77013;BME280;67260;53.130;17.982;2023-08-31T10:26:45;100367.16;;;25.01;42.32
77013;BME280;67260;53.130;17.982;2023-08-31T10:29:26;100366.92;;;24.15;44.24
77013;BME280;67260;53.130;17.982;2023-08-31T10:31:54;100371.61;;;23.13;46.26
77013;BME280;67260;53.130;17.982;2023-08-31T10:34:34;100374.45;;;22.40;47.67
77013;BME280;67260;53.130;17.982;2023-08-31T10:37:01;100382.70;;;21.81;49.71
77013;BME280;67260;53.130;17.982;2023-08-31T10:39:37;100386.67;;;21.30;51.81
77013;BME280;67260;53.130;17.982;2023-08-31T10:42:04;100394.30;;;20.81;53.22
77013;BME280;67260;53.130;17.982;2023-08-31T10:44:32;100402.52;;;20.41;54.96
77013;BME280;67260;53.130;17.982;2023-08-31T10:47:05;100405.10;;;20.12;56.25
77013;BME280;67260;53.130;17.982;2023-08-31T10:49:32;100405.23;;;19.93;56.60
77013;BME280;67260;53.130;17.982;2023-08-31T10:52:18;100407.02;;;19.79;57.27
77013;BME280;67260;53.130;17.982;2023-08-31T10:54:46;100418.09;;;19.65;57.77
77013;BME280;67260;53.130;17.982;2023-08-31T10:57:17;100423.45;;;19.44;58.36
77013;BME280;67260;53.130;17.982;2023-08-31T10:59:52;100427.67;;;19.14;59.73
77013;BME280;67260;53.130;17.982;2023-08-31T11:02:44;100430.27;;;18.85;60.30
77013;BME280;67260;53.130;17.982;2023-08-31T11:05:18;100432.02;;;18.59;61.67
77013;BME280;67260;53.130;17.982;2023-08-31T11:07:52;100434.17;;;18.39;62.26
77013;BME280;67260;53.130;17.982;2023-08-31T11:10:22;100440.84;;;18.25;64.02
77013;BME280;67260;53.130;17.982;2023-08-31T11:12:58;100439.46;;;18.03;65.36
77013;BME280;67260;53.130;17.982;2023-08-31T11:15:27;100442.86;;;17.82;66.85
77013;BME280;67260;53.130;17.982;2023-08-31T11:17:56;100442.86;;;17.60;67.13
77013;BME280;67260;53.130;17.982;2023-08-31T11:20:24;100442.13;;;17.55;67.79
77013;BME280;67260;53.130;17.982;2023-08-31T11:22:54;100439.86;;;17.54;67.43
77013;BME280;67260;53.130;17.982;2023-08-31T11:25:22;100435.67;;;17.62;68.13
77013;BME280;67260;53.130;17.982;2023-08-31T11:28:09;100433.65;;;17.78;68.17
77013;BME280;67260;53.130;17.982;2023-08-31T11:31:01;100434.31;;;17.90;68.28
77013;BME280;67260;53.130;17.982;2023-08-31T11:33:49;100440.95;;;17.95;68.08
77013;BME280;67260;53.130;17.982;2023-08-31T11:36:20;100439.66;;;17.97;68.15
77013;BME280;67260;53.130;17.982;2023-08-31T11:39:17;100433.44;;;18.13;68.22
77013;BME280;67260;53.130;17.982;2023-08-31T11:41:56;100439.07;;;18.44;67.39
77013;BME280;67260;53.130;17.982;2023-08-31T11:44:28;100439.77;;;18.64;67.20
77013;BME280;67260;53.130;17.982;2023-08-31T11:46:55;100440.02;;;18.95;66.80
77013;BME280;67260;53.130;17.982;2023-08-31T11:49:24;100440.33;;;19.16;65.96
77013;BME280;67260;53.130;17.982;2023-08-31T11:51:53;100438.55;;;19.17;66.02
77013;BME280;67260;53.130;17.982;2023-08-31T11:54:20;100440.98;;;19.10;65.89
77013;BME280;67260;53.130;17.982;2023-08-31T11:56:47;100437.69;;;19.31;65.45
77013;BME280;67260;53.130;17.982;2023-08-31T11:59:18;100438.56;;;19.93;64.32
77013;BME280;67260;53.130;17.982;2023-08-31T12:01:54;100433.82;;;20.75;62.95
77013;BME280;67260;53.130;17.982;2023-08-31T12:04:23;100428.87;;;21.21;60.84
77013;BME280;67260;53.130;17.982;2023-08-31T12:07:11;100432.59;;;21.14;59.99
77013;BME280;67260;53.130;17.982;2023-08-31T12:09:47;100424.08;;;20.80;60.13
77013;BME280;67260;53.130;17.982;2023-08-31T12:12:38;100435.38;;;20.43;60.38
77013;BME280;67260;53.130;17.982;2023-08-31T12:15:05;100437.16;;;20.07;60.78
77013;BME280;67260;53.130;17.982;2023-08-31T12:17:37;100438.00;;;19.67;61.35
77013;BME280;67260;53.130;17.982;2023-08-31T12:20:09;100439.20;;;19.25;61.99
77013;BME280;67260;53.130;17.982;2023-08-31T12:22:36;100431.23;;;19.01;62.36
77013;BME280;67260;53.130;17.982;2023-08-31T12:25:19;100423.54;;;18.90;62.57
77013;BME280;67260;53.130;17.982;2023-08-31T12:27:53;100414.77;;;18.87;62.51
77013;BME280;67260;53.130;17.982;2023-08-31T12:30:24;100418.15;;;18.87;62.50
77013;BME280;67260;53.130;17.982;2023-08-31T12:33:14;100435.70;;;18.85;62.33
77013;BME280;67260;53.130;17.982;2023-08-31T12:35:41;100445.55;;;18.80;62.49
77013;BME280;67260;53.130;17.982;2023-08-31T12:38:12;100451.41;;;18.78;62.78
77013;BME280;67260;53.130;17.982;2023-08-31T12:40:39;100452.77;;;18.81;63.08
77013;BME280;67260;53.130;17.982;2023-08-31T12:43:06;100446.85;;;19.02;62.70
77013;BME280;67260;53.130;17.982;2023-08-31T12:46:00;100453.00;;;19.21;61.91
77013;BME280;67260;53.130;17.982;2023-08-31T12:48:37;100453.48;;;19.26;59.98
77013;BME280;67260;53.130;17.982;2023-08-31T12:51:03;100450.73;;;19.20;59.60
77013;BME280;67260;53.130;17.982;2023-08-31T12:53:36;100448.30;;;19.15;59.86
77013;BME280;67260;53.130;17.982;2023-08-31T12:56:18;100447.98;;;19.02;59.09
77013;BME280;67260;53.130;17.982;2023-08-31T12:58:54;100450.52;;;18.93;59.97
77013;BME280;67260;53.130;17.982;2023-08-31T13:01:21;100453.90;;;18.92;60.52
77013;BME280;67260;53.130;17.982;2023-08-31T13:04:05;100456.23;;;19.02;60.46
77013;BME280;67260;53.130;17.982;2023-08-31T13:06:33;100458.54;;;19.21;60.17
77013;BME280;67260;53.130;17.982;2023-08-31T13:09:02;100459.66;;;19.38;59.78
77013;BME280;67260;53.130;17.982;2023-08-31T13:11:30;100456.21;;;19.54;59.50
77013;BME280;67260;53.130;17.982;2023-08-31T13:13:57;100457.71;;;19.77;58.85